Time;durP1;ratioP1;P1;durP2;ratioP2;P2;SDS_P1;SDS_P2;PMS_P1;PMS_P2;Temp;Humidity;BMP_temperature;BMP_pressure;BME280_temperature;BME280_humidity;BME280_pressure;Samples;Min_cycle;Max_cycle;Signal;HPM_P1;HPM_P2
2022/03/11 00:00:59;;;;;;;17.67;11.30;;;10.10;99.90;;;10.36;44.73;101547.66;5095530;28;20162;-60
2022/03/11 00:03:28;;;;;;;17.73;12.00;;;10.10;99.90;;;10.35;44.86;101543.25;5095544;28;20040;-60
2022/03/11 00:05:57;;;;;;;15.27;11.90;;;10.10;99.90;;;10.33;44.73;101545.91;5095529;28;20048;-60
2022/03/11 00:08:26;;;;;;;18.95;12.32;;;10.00;99.90;;;10.29;45.25;101545.84;5095214;28;20059;-60
2022/03/11 00:10:54;;;;;;;16.23;12.38;;;10.00;99.90;;;10.10;45.16;101549.22;5077341;28;20048;-60
2022/03/11 00:13:23;;;;;;;16.30;12.57;;;9.90;99.90;;;10.20;44.97;101545.78;5095491;28;20048;-59
2022/03/11 00:15:53;;;;;;;19.48;13.27;;;9.90;99.90;;;10.04;45.79;101545.59;5095435;28;20032;-60
2022/03/11 00:18:23;;;;;;;17.55;12.15;;;9.80;99.90;;;9.89;45.81;101521.69;5095606;28;20044;-60
2022/03/11 00:20:51;;;;;;;15.63;12.60;;;9.70;99.90;;;9.94;45.63;101533.22;5095603;28;20109;-60
2022/03/11 00:23:20;;;;;;;17.85;12.23;;;9.70;99.90;;;9.99;45.99;101527.94;5094996;28;20036;-60
2022/03/11 00:25:48;;;;;;;15.75;12.60;;;9.70;99.90;;;9.95;46.01;101534.97;5095204;28;20097;-67
2022/03/11 00:28:17;;;;;;;17.95;13.00;;;9.70;99.90;;;9.96;46.06;101527.94;5077029;28;20109;-58
2022/03/11 00:30:45;;;;;;;19.15;13.45;;;9.70;99.90;;;9.96;46.08;101523.53;5095161;28;20048;-59
2022/03/11 00:33:14;;;;;;;21.20;12.63;;;9.70;99.90;;;9.80;46.55;101513.69;5094900;28;20115;-59
2022/03/11 00:35:45;;;;;;;17.02;12.82;;;9.70;99.90;;;9.90;46.33;101525.25;5094958;28;20052;-59
2022/03/11 00:38:13;;;;;;;17.40;12.63;;;9.60;99.90;;;9.80;46.34;101526.91;5076827;28;20048;-59
2022/03/11 00:40:42;;;;;;;16.48;12.35;;;9.60;99.90;;;9.89;46.05;101521.69;5094561;28;20123;-59
2022/03/11 00:43:11;;;;;;;17.90;12.77;;;9.60;99.90;;;9.82;46.03;101519.88;5094669;28;20048;-59
2022/03/11 00:45:39;;;;;;;21.25;13.68;;;9.50;99.90;;;9.80;46.23;101516.34;5075893;28;20437;-59
2022/03/11 00:48:08;;;;;;;17.52;13.23;;;9.50;99.90;;;9.76;46.80;101509.25;5094659;28;20075;-59
2022/03/11 00:50:36;;;;;;;17.52;12.20;;;9.50;99.90;;;9.76;46.01;101516.28;5094488;28;20415;-59
2022/03/11 00:53:08;;;;;;;21.75;13.23;;;9.50;99.90;;;9.78;46.26;101510.16;5094786;28;20067;-59
2022/03/11 00:55:37;;;;;;;;;;;9.50;99.90;;;9.84;46.25;101507.59;5077020;28;20048;-59
2022/03/11 00:58:05;;;;;;;17.67;13.70;;;9.50;99.90;;;9.76;46.78;101503.97;5094461;28;20439;-59
2022/03/11 01:00:34;;;;;;;19.33;12.90;;;9.50;99.90;;;9.65;46.25;101497.72;5094347;28;20047;-59
2022/03/11 01:03:03;;;;;;;20.23;13.25;;;9.40;99.90;;;9.72;46.93;101486.31;5094633;28;20051;-59
2022/03/11 01:05:31;;;;;;;20.45;13.32;;;9.50;99.90;;;9.77;46.58;101494.31;5094493;28;20040;-59
2022/03/11 01:08:00;;;;;;;19.25;13.18;;;9.50;99.90;;;9.79;47.05;101490.78;5094544;28;20052;-59
2022/03/11 01:10:30;;;;;;;24.13;13.57;;;9.50;99.90;;;9.54;47.17;101483.50;5094185;28;20052;-59
2022/03/11 01:12:59;;;;;;;18.20;14.32;;;9.40;99.90;;;9.46;47.34;101482.56;5094241;28;20078;-59
2022/03/11 01:15:28;;;;;;;20.17;13.07;;;9.20;99.90;;;9.29;47.76;101470.94;5094180;28;20123;-59
2022/03/11 01:17:57;;;;;;;18.77;13.40;;;9.10;99.90;;;9.31;48.11;101468.34;5094049;28;20044;-59
2022/03/11 01:20:25;;;;;;;22.42;12.93;;;9.10;99.90;;;9.35;47.41;101470.13;5094245;28;20082;-58
2022/03/11 01:22:54;;;;;;;20.23;13.10;;;9.10;99.90;;;9.18;47.81;101464.66;5094541;28;20036;-59
2022/03/11 01:25:22;;;;;;;18.45;13.55;;;8.90;99.90;;;9.23;47.91;101455.06;5094257;28;20087;-58
2022/03/11 01:27:52;;;;;;;21.33;14.00;;;8.90;99.90;;;9.09;47.72;101456.66;5094788;28;20085;-59
2022/03/11 01:30:21;;;;;;;18.67;13.40;;;8.80;99.90;;;9.13;48.19;101449.66;5093932;28;20048;-59
2022/03/11 01:32:50;;;;;;;20.10;14.05;;;8.80;99.90;;;9.10;47.82;101456.66;5094349;28;20048;-59
2022/03/11 01:35:18;;;;;;;19.67;14.60;;;8.80;99.90;;;8.98;47.84;101451.25;5094736;28;20044;-59
2022/03/11 01:37:47;;;;;;;21.13;15.23;;;8.80;99.90;;;9.03;48.03;101449.56;5094002;28;20048;-59
2022/03/11 01:40:15;;;;;;;21.90;14.88;;;8.80;99.90;;;9.12;47.46;101443.47;5093737;28;20047;-59
2022/03/11 01:42:43;;;;;;;24.38;14.60;;;8.80;99.90;;;9.20;47.37;101438.28;5093667;28;20090;-59
2022/03/11 01:45:13;;;;;;;22.08;14.18;;;8.90;99.90;;;9.22;47.34;101444.47;5093919;28;20427;-59
2022/03/11 01:47:43;;;;;;;23.02;13.95;;;8.90;99.90;;;9.14;47.20;101439.09;5093928;28;20044;-59
2022/03/11 01:50:11;;;;;;;18.75;13.93;;;8.90;99.90;;;9.05;46.94;101407.34;5093539;28;20489;-59
2022/03/11 01:52:40;;;;;;;21.27;13.65;;;8.90;99.90;;;9.21;46.80;101422.50;5094071;28;20078;-59
2022/03/11 01:55:09;;;;;;;17.25;13.82;;;8.90;99.90;;;9.35;46.93;101427.91;5093640;28;20052;-59
2022/03/11 01:57:38;;;;;;;18.42;13.90;;;9.00;99.90;;;9.19;47.43;101421.59;5075524;28;20067;-59
2022/03/11 02:00:09;;;;;;;23.20;13.98;;;9.00;99.90;;;9.26;46.74;101411.94;5093959;28;20110;-59
2022/03/11 02:02:42;;;;;;;18.10;14.70;;;9.00;99.90;;;9.25;46.86;101413.72;5093726;28;20059;-58
2022/03/11 02:05:11;;;;;;;20.45;14.20;;;9.00;99.90;;;9.34;46.65;101416.44;5093605;28;20130;-59
2022/03/11 02:07:40;;;;;;;20.77;14.85;;;9.00;99.90;;;9.34;46.61;101405.00;5093888;28;20131;-59
2022/03/11 02:10:09;;;;;;;20.15;13.88;;;9.10;99.90;;;9.14;46.76;101401.31;5093954;28;20101;-59
2022/03/11 02:12:38;;;;;;;20.15;14.48;;;8.90;99.90;;;9.20;46.75;101404.88;5093220;28;20122;-59
2022/03/11 02:15:09;;;;;;;22.02;14.52;;;8.90;99.90;;;9.12;47.08;101403.03;5093086;28;20044;-59
2022/03/11 02:17:38;;;;;;;20.83;13.45;;;8.90;99.90;;;9.10;47.43;101393.34;5093399;28;20495;-59
2022/03/11 02:20:09;;;;;;;20.92;14.00;;;8.80;99.90;;;9.02;47.15;101392.38;5093170;28;20071;-59
2022/03/11 02:22:41;;;;;;;20.35;14.85;;;8.70;99.90;;;8.96;47.44;101388.81;5092976;28;20044;-59
2022/03/11 02:25:11;;;;;;;18.40;14.23;;;8.70;99.90;;;8.87;47.78;101391.31;5093018;28;20052;-59
2022/03/11 02:27:42;;;;;;;19.80;13.15;;;8.60;99.90;;;8.92;47.57;101381.72;5092814;28;20044;-59
2022/03/11 02:30:15;;;;;;;21.75;14.52;;;8.60;99.90;;;8.78;48.11;101383.31;5092767;28;20105;-59
2022/03/11 02:32:44;;;;;;;21.00;14.38;;;8.60;99.90;;;8.60;48.02;101373.44;5093305;28;20051;-59
2022/03/11 02:35:14;;;;;;;26.25;14.15;;;8.50;99.90;;;8.66;48.66;101377.91;5092574;28;20067;-59
2022/03/11 02:37:42;;;;;;;22.00;13.98;;;8.40;99.90;;;8.72;48.37;101376.22;5092493;28;20516;-59
2022/03/11 02:40:13;;;;;;;22.42;15.13;;;8.50;99.90;;;8.63;48.51;101372.59;5092978;28;20127;-59
2022/03/11 02:42:41;;;;;;;21.08;14.77;;;8.40;99.90;;;8.53;49.13;101383.91;5092559;28;20434;-59
2022/03/11 02:45:10;;;;;;;23.40;14.52;;;8.30;99.90;;;8.41;49.03;101367.94;5092707;28;20457;-59
2022/03/11 02:47:39;;;;;;;22.08;14.02;;;8.20;99.90;;;8.44;49.18;101365.34;5092635;28;20070;-58
2022/03/11 02:50:08;;;;;;;21.45;15.15;;;8.20;99.90;;;8.47;49.03;101374.19;5092340;28;20042;-59
2022/03/11 02:52:36;;;;;;;19.77;14.32;;;8.20;99.90;;;8.39;49.03;101367.03;5074190;28;20078;-59
2022/03/11 02:55:06;;;;;;;23.25;15.43;;;8.20;99.90;;;8.28;49.84;101372.19;5092669;28;20231;-59
2022/03/11 02:57:36;;;;;;;21.73;15.13;;;8.10;99.90;;;8.17;49.92;101374.63;5092205;28;20044;-59
2022/03/11 03:00:06;;;;;;;22.03;15.03;;;8.00;99.90;;;8.31;49.50;101359.03;5092171;28;20071;-59
2022/03/11 03:02:34;;;;;;;20.65;15.10;;;8.00;99.90;;;8.27;49.28;101359.84;5092043;28;20297;-59
2022/03/11 03:05:04;;;;;;;28.77;14.48;;;8.10;99.90;;;8.21;49.56;101360.63;5092016;28;20047;-59
2022/03/11 03:07:33;;;;;;;22.38;15.88;;;8.00;99.90;;;8.19;49.74;101357.09;5091968;28;20148;-59
2022/03/11 03:10:01;;;;;;;22.45;15.25;;;8.00;99.90;;;8.25;49.67;101366.84;5092014;28;20075;-59
2022/03/11 03:12:29;;;;;;;24.42;15.68;;;8.00;99.90;;;8.18;49.83;101355.34;5091866;28;20040;-58
2022/03/11 03:14:59;;;;;;;21.30;14.95;;;8.00;99.90;;;8.12;49.42;101349.97;5091976;28;20048;-58
2022/03/11 03:17:29;;;;;;;24.15;15.65;;;7.90;99.90;;;8.29;49.69;101347.59;5092212;28;20089;-59
2022/03/11 03:20:01;;;;;;;24.23;16.60;;;8.00;99.90;;;8.35;49.38;101346.78;5091818;28;20410;-59
2022/03/11 03:22:29;;;;;;;22.38;15.52;;;8.10;99.90;;;8.18;49.69;101346.53;5092105;28;20685;-58
2022/03/11 03:24:57;;;;;;;23.75;15.90;;;8.00;99.90;;;8.04;49.48;101342.81;5092019;28;20052;-59
2022/03/11 03:27:26;;;;;;;26.77;15.98;;;7.90;99.90;;;8.00;49.61;101339.28;5073736;28;20529;-58
2022/03/11 03:29:54;;;;;;;25.25;15.85;;;7.80;99.90;;;8.04;49.92;101341.09;5092262;28;20119;-59
2022/03/11 03:32:24;;;;;;;23.60;15.38;;;7.80;99.90;;;8.12;49.48;101330.66;5091669;28;20054;-59
2022/03/11 03:34:54;;;;;;;23.48;15.10;;;7.90;99.90;;;8.07;49.43;101335.84;5092005;28;20050;-59
2022/03/11 03:37:23;;;;;;;23.10;16.60;;;7.80;99.90;;;8.05;49.53;101336.72;5091911;28;20173;-59
2022/03/11 03:39:51;;;;;;;24.38;15.02;;;7.80;99.90;;;8.04;49.05;101334.94;5091617;28;20393;-59
2022/03/11 03:42:19;;;;;;;24.67;16.67;;;7.80;99.90;;;8.06;49.91;101318.28;5091474;28;20048;-58
2022/03/11 03:44:48;;;;;;;21.92;15.57;;;7.80;99.90;;;8.05;49.68;101326.19;5091610;28;20130;-59
2022/03/11 03:47:16;;;;;;;23.95;15.15;;;7.80;99.90;;;8.03;49.75;101312.97;5092168;28;20048;-58
2022/03/11 03:49:46;;;;;;;28.83;16.42;;;7.80;99.90;;;7.94;49.80;101326.03;5091628;28;20179;-59
2022/03/11 03:52:14;;;;;;;24.85;16.65;;;7.70;99.90;;;7.90;50.07;101321.56;5073658;28;20120;-59
2022/03/11 03:54:44;;;;;;;24.17;15.75;;;7.70;99.90;;;8.00;49.94;101323.47;5091804;28;20123;-58
2022/03/11 03:57:13;;;;;;;22.30;15.98;;;7.80;99.90;;;7.91;49.99;101318.09;5091886;28;20064;-59
2022/03/11 03:59:41;;;;;;;30.20;16.30;;;7.70;99.90;;;7.87;50.19;101295.22;5091515;28;20056;-59
2022/03/11 04:02:10;;;;;;;21.73;15.05;;;7.70;99.90;;;7.77;50.47;101301.22;5091664;28;20044;-59
2022/03/11 04:04:39;;;;;;;23.88;16.20;;;7.60;99.90;;;7.68;50.76;101305.47;5092074;28;20043;-59
2022/03/11 04:07:08;;;;;;;24.10;16.25;;;7.50;99.90;;;7.68;50.97;101305.47;5091476;28;20050;-59
2022/03/11 04:09:37;;;;;;;25.87;17.20;;;7.50;99.90;;;7.72;51.06;101308.19;5091556;28;20046;-58
2022/03/11 04:12:06;;;;;;;26.20;16.77;;;7.50;99.90;;;7.59;51.33;101300.09;5091629;28;20051;-59
2022/03/11 04:14:34;;;;;;;27.52;16.33;;;7.40;99.90;;;7.57;51.66;101307.06;5092148;28;20063;-58
2022/03/11 04:17:03;;;;;;;28.70;17.20;;;7.30;99.90;;;7.50;51.25;101300.81;5091803;28;20048;-58
2022/03/11 04:19:33;;;;;;;28.50;17.08;;;7.30;99.90;;;7.55;51.56;101298.25;5092477;28;20541;-59
2022/03/11 04:22:02;;;;;;;24.17;16.40;;;7.30;99.90;;;7.58;51.64;101291.28;5095186;28;20485;-58
2022/03/11 04:24:32;;;;;;;23.00;16.52;;;7.40;99.90;;;7.52;51.82;101285.03;5095258;28;20290;-59
2022/03/11 04:27:00;;;;;;;26.80;17.08;;;7.30;99.90;;;7.50;51.72;101289.41;5095279;28;20048;-59
2022/03/11 04:29:28;;;;;;;24.67;16.88;;;7.30;99.90;;;7.38;51.97;101281.31;5095697;28;20119;-58
2022/03/11 04:31:57;;;;;;;26.48;17.48;;;7.20;99.90;;;7.36;52.49;101290.94;5095363;28;20523;-58
2022/03/11 04:34:26;;;;;;;30.33;18.15;;;7.20;99.90;;;7.34;52.67;101280.38;5095062;28;20568;-59
2022/03/11 04:36:56;;;;;;;26.83;17.92;;;7.10;99.90;;;7.22;52.50;101281.09;5095045;28;20048;-58
2022/03/11 04:39:26;;;;;;;41.20;18.17;;;7.10;99.90;;;7.14;53.07;101282.72;5095339;28;20097;-59
2022/03/11 04:41:59;;;;;;;23.95;16.95;;;7.00;99.90;;;7.19;52.98;101282.78;5095098;28;20086;-59
2022/03/11 04:44:32;;;;;;;25.77;17.42;;;7.00;99.90;;;7.08;52.91;101273.84;5095214;28;20047;-59
2022/03/11 04:47:00;;;;;;;28.98;17.60;;;6.90;99.90;;;6.98;53.27;101280.72;5094893;28;20115;-59
2022/03/11 04:49:28;;;;;;;29.50;18.45;;;6.80;99.90;;;6.89;53.81;101280.53;5094842;28;20040;-59
2022/03/11 04:51:57;;;;;;;31.30;17.77;;;6.70;99.90;;;6.93;53.35;101271.84;5095626;28;20412;-59
2022/03/11 04:54:25;;;;;;;27.85;17.48;;;6.80;99.90;;;6.86;53.82;101280.50;5094696;28;20516;-58
2022/03/11 04:56:54;;;;;;;22.13;17.13;;;6.70;99.90;;;6.96;53.40;101278.91;5094666;28;20036;-59
2022/03/11 04:59:23;;;;;;;25.80;17.67;;;6.70;99.90;;;6.97;53.29;101280.66;5094756;28;20493;-59
2022/03/11 05:01:52;;;;;;;25.80;17.53;;;6.80;99.90;;;6.94;53.28;101285.88;5094969;28;20040;-58
2022/03/11 05:04:20;;;;;;;29.27;17.65;;;6.70;99.90;;;6.99;53.03;101282.47;5095427;28;20048;-58
2022/03/11 05:06:48;;;;;;;28.92;18.10;;;6.80;99.90;;;6.86;53.44;101274.34;5094711;28;20062;-59
2022/03/11 05:09:17;;;;;;;29.15;18.98;;;6.70;99.90;;;6.94;52.90;101276.25;5094377;28;20068;-58
2022/03/11 05:11:45;;;;;;;30.30;17.77;;;6.70;99.90;;;6.96;52.92;101265.75;5094318;28;20071;-59
2022/03/11 05:14:13;;;;;;;26.27;16.95;;;6.70;99.90;;;7.08;52.82;101266.81;5094572;28;20181;-59
2022/03/11 05:16:43;;;;;;;22.05;15.70;;;6.80;99.90;;;7.08;52.80;101263.34;5094458;28;20122;-59
2022/03/11 05:19:12;;;;;;;33.17;17.23;;;6.80;99.90;;;7.06;52.61;101268.56;5094181;28;20489;-58
2022/03/11 05:21:40;;;;;;;24.58;16.35;;;6.90;99.90;;;7.01;52.68;101261.44;5094342;28;20083;-59
2022/03/11 05:24:08;;;;;;;26.27;17.75;;;6.80;99.90;;;7.01;52.62;101254.44;5094011;28;20097;-58
2022/03/11 05:26:37;;;;;;;29.10;17.42;;;6.80;99.90;;;6.99;52.73;101261.44;5093920;28;20056;-58
2022/03/11 05:29:05;;;;;;;25.73;16.75;;;6.80;99.90;;;7.06;52.48;101257.16;5094137;28;20448;-59
2022/03/11 05:31:33;;;;;;;26.17;16.77;;;6.80;99.90;;;7.16;52.21;101256.44;5093419;28;20098;-59
2022/03/11 05:34:03;;;;;;;22.73;16.88;;;6.90;99.90;;;7.12;52.02;101257.25;5094010;28;20058;-59
2022/03/11 05:36:32;;;;;;;28.97;17.90;;;6.90;99.90;;;7.10;51.84;101256.34;5093775;28;20415;-59
2022/03/11 05:39:00;;;;;;;26.73;16.65;;;6.90;99.90;;;6.99;52.14;101260.53;5093920;28;20047;-59
2022/03/11 05:41:29;;;;;;;24.77;16.20;;;6.80;99.90;;;6.99;52.10;101256.16;5093872;28;20044;-58
2022/03/11 05:43:57;;;;;;;23.65;17.02;;;6.80;99.90;;;7.18;51.58;101255.59;5093999;28;20064;-59
2022/03/11 05:46:25;;;;;;;23.40;17.10;;;6.90;99.90;;;7.21;51.55;101241.63;5093507;28;20048;-59
2022/03/11 05:48:54;;;;;;;27.45;16.65;;;7.00;99.90;;;7.09;51.87;101260.72;5093415;28;20071;-59
2022/03/11 05:51:24;;;;;;;22.25;16.20;;;6.90;99.90;;;6.98;51.77;101235.13;5093409;28;20109;-59
2022/03/11 05:53:52;;;;;;;23.90;16.50;;;6.90;99.90;;;6.98;52.19;101250.91;5093388;28;20093;-58
2022/03/11 05:56:21;;;;;;;23.02;16.85;;;6.80;99.90;;;7.10;51.93;101251.09;5093264;28;20339;-58
2022/03/11 05:58:50;;;;;;;26.50;16.45;;;6.90;99.90;;;6.95;52.25;101248.22;5093205;28;20044;-59
2022/03/11 06:01:19;;;;;;;25.57;16.90;;;6.80;99.90;;;6.85;52.47;101251.56;5093422;28;20437;-58
2022/03/11 06:03:48;;;;;;;25.50;17.13;;;6.70;99.90;;;6.73;52.73;101241.72;5093139;28;20048;-58
2022/03/11 06:06:17;;;;;;;25.05;16.50;;;6.60;99.90;;;6.78;53.01;101247.03;5093467;28;20495;-58
2022/03/11 06:08:46;;;;;;;24.92;17.38;;;6.60;99.90;;;6.84;52.97;101245.41;5093447;28;20044;-58
2022/03/11 06:11:18;;;;;;;26.02;17.05;;;6.60;99.90;;;6.69;53.36;101236.38;5093138;28;20131;-58
2022/03/11 06:13:46;;;;;;;26.67;17.15;;;6.50;99.90;;;6.74;53.27;101232.06;5092780;28;20044;-59
2022/03/11 06:16:15;;;;;;;24.48;16.30;;;6.50;99.90;;;6.66;53.89;101234.56;5092897;28;20069;-59
2022/03/11 06:18:44;;;;;;;25.85;16.88;;;6.50;99.90;;;6.66;53.28;101236.34;5093185;28;20063;-59
2022/03/11 06:21:12;;;;;;;24.27;16.02;;;6.50;99.90;;;6.64;53.81;101227.53;5092690;28;20394;-58
2022/03/11 06:23:40;;;;;;;28.92;17.23;;;6.40;99.90;;;6.77;53.04;101217.25;5092746;28;20075;-59
2022/03/11 06:26:10;;;;;;;25.45;17.20;;;6.60;99.90;;;6.83;53.42;101225.22;5092766;28;20097;-59
2022/03/11 06:28:39;;;;;;;26.52;17.67;;;6.60;99.90;;;7.05;52.98;101229.06;5092645;28;20076;-58
2022/03/11 06:31:11;;;;;;;23.05;16.10;;;6.80;99.90;;;6.32;52.80;101103.50;5092780;28;20052;-58
2022/03/11 06:33:39;;;;;;;26.33;16.52;;;6.80;99.90;;;7.00;53.11;101225.50;5093101;28;20048;-60
2022/03/11 06:36:08;;;;;;;28.17;16.55;;;6.80;99.90;;;7.14;52.73;101226.63;5092518;28;20071;-59
2022/03/11 06:38:36;;;;;;;27.00;17.15;;;6.90;99.90;;;7.16;52.48;101232.78;5092688;28;20059;-58
2022/03/11 06:41:07;;;;;;;25.67;17.10;;;6.90;99.90;;;7.04;52.73;101229.94;5092507;28;20032;-58
2022/03/11 06:43:37;;;;;;;23.30;16.65;;;6.80;99.90;;;7.34;51.84;101230.41;5092051;28;20044;-59
2022/03/11 06:46:07;;;;;;;26.05;16.85;;;7.00;99.90;;;7.32;52.35;101224.22;5092338;28;20489;-59
2022/03/11 06:48:35;;;;;;;25.33;16.30;;;7.10;99.90;;;7.58;51.26;101217.59;5092280;28;20036;-58
2022/03/11 06:51:05;;;;;;;21.73;15.90;;;7.30;99.90;;;7.79;51.26;101228.41;5092879;28;20115;-59
2022/03/11 06:53:34;;;;;;;23.10;16.05;;;7.50;99.90;;;7.55;51.12;101200.88;5092381;28;20086;-59
2022/03/11 06:56:04;;;;;;;22.55;15.48;;;7.50;99.90;;;7.61;51.13;101222.88;5092134;28;20442;-59
2022/03/11 06:58:34;;;;;;;25.98;14.98;;;7.40;99.90;;;7.61;50.88;101225.50;5074275;28;20118;-59
2022/03/11 07:01:04;;;;;;;21.80;15.30;;;7.30;99.90;;;7.64;51.28;101222.94;5092475;28;20491;-59
2022/03/11 07:03:32;;;;;;;24.13;16.05;;;7.40;99.90;;;7.86;50.83;101226.69;5092351;28;20055;-59
2022/03/11 07:06:01;;;;;;;24.83;15.90;;;7.60;99.90;;;8.08;50.94;101215.56;5092131;28;20042;-58
2022/03/11 07:08:29;;;;;;;22.63;15.85;;;7.70;99.90;;;8.10;50.51;101214.72;5092212;28;20076;-59
2022/03/11 07:10:58;;;;;;;28.25;16.45;;;7.80;99.90;;;7.99;50.40;101218.09;5074354;28;20080;-59
2022/03/11 07:13:27;;;;;;;24.40;15.30;;;7.70;99.90;;;8.01;50.09;101213.72;5092142;28;20048;-59
2022/03/11 07:15:57;;;;;;;24.27;15.48;;;7.80;99.90;;;8.29;50.07;101209.66;5092258;28;20067;-59
2022/03/11 07:18:27;;;;;;;23.90;15.27;;;8.00;99.90;;;8.19;49.62;101208.66;5092034;28;20131;-59
2022/03/11 07:20:55;;;;;;;24.93;15.03;;;8.00;99.90;;;8.20;49.42;101213.97;5092200;28;20044;-59
2022/03/11 07:23:28;;;;;;;23.83;14.43;;;8.00;99.90;;;8.23;48.82;101212.22;5074178;28;20124;-58
2022/03/11 07:25:57;;;;;;;23.70;15.45;;;8.00;99.90;;;8.39;48.37;101201.88;5092355;28;20078;-59
2022/03/11 07:28:27;;;;;;;25.45;15.65;;;8.20;99.90;;;8.54;48.54;101225.75;5092289;28;20040;-59
2022/03/11 07:30:55;;;;;;;20.38;14.63;;;8.30;99.90;;;8.48;48.91;101219.53;5092304;28;20052;-59
2022/03/11 07:33:26;;;;;;;23.10;15.23;;;8.30;99.90;;;8.62;48.50;101224.06;5092205;28;20076;-59
2022/03/11 07:35:54;;;;;;;23.40;15.07;;;8.40;99.90;;;8.71;47.75;101220.63;5091908;28;20044;-59
2022/03/11 07:38:24;;;;;;;22.88;14.07;;;8.50;99.90;;;8.78;47.84;101225.09;5091829;28;20085;-59
2022/03/11 07:40:53;;;;;;;32.05;14.85;;;8.50;99.90;;;8.98;47.64;101218.22;5074036;28;20051;-59
2022/03/11 07:43:21;;;;;;;20.55;15.48;;;8.70;99.90;;;9.08;47.64;101209.47;5091848;28;20101;-59
2022/03/11 07:45:49;;;;;;;20.95;14.52;;;8.80;99.90;;;9.13;47.41;101228.88;5091871;28;20101;-59
2022/03/11 07:48:18;;;;;;;23.13;15.35;;;8.90;99.90;;;9.10;47.91;101210.38;5092411;28;20071;-59
2022/03/11 07:50:48;;;;;;;22.40;14.70;;;8.80;99.90;;;9.16;46.78;101228.88;5091875;28;20142;-59
2022/03/11 07:53:16;;;;;;;19.17;13.47;;;8.90;99.90;;;9.27;46.66;101202.59;5092832;28;20112;-59
2022/03/11 07:55:45;;;;;;;23.55;14.95;;;9.00;99.90;;;9.40;47.03;101215.88;5095908;28;20066;-58
2022/03/11 07:58:13;;;;;;;23.73;14.23;;;9.10;99.90;;;9.61;46.75;101221.25;5096194;28;20048;-58
2022/03/11 08:00:42;;;;;;;25.02;13.90;;;9.30;99.90;;;9.61;45.83;101213.34;5077826;28;20412;-58
2022/03/11 08:03:10;;;;;;;21.63;14.10;;;9.40;99.90;;;9.63;46.72;101232.72;5096072;28;20040;-58
2022/03/11 08:05:39;;;;;;;22.70;14.70;;;9.40;99.90;;;10.04;45.15;101215.25;5095681;28;20036;-60
2022/03/11 08:08:09;;;;;;;20.67;14.10;;;9.70;99.90;;;10.33;44.84;101210.09;5095923;28;20047;-55
2022/03/11 08:10:37;;;;;;;22.33;14.37;;;9.90;99.90;;;10.36;44.66;101195.97;5095768;28;20074;-57
2022/03/11 08:13:27;;;;;;;20.00;14.18;;;10.10;99.90;;;10.58;45.04;101200.44;5095466;28;20757;-55
2022/03/11 08:15:56;;;;;;;18.90;13.65;;;10.20;99.90;;;10.72;43.47;101203.97;5095292;28;20048;-56
2022/03/11 08:18:24;;;;;;;24.25;14.00;;;10.40;99.90;;;10.76;43.74;101189.88;5095196;28;20036;-57
2022/03/11 08:20:53;;;;;;;23.92;14.65;;;10.50;99.90;;;10.77;43.65;101202.19;5095139;28;20101;-56
2022/03/11 08:23:23;;;;;;;21.63;13.98;;;10.50;99.90;;;10.80;43.57;101199.56;5095097;28;20071;-58
2022/03/11 08:25:51;;;;;;;22.92;13.60;;;10.50;99.90;;;10.86;43.95;101199.53;5095434;28;20396;-59
2022/03/11 08:28:22;;;;;;;26.55;14.68;;;10.50;99.90;;;11.11;44.46;101188.03;5095040;28;20492;-55
2022/03/11 08:30:51;;;;;;;22.67;14.50;;;10.80;99.90;;;11.09;43.52;101196.91;5095112;28;20044;-55
2022/03/11 08:33:22;;;;;;;19.25;13.25;;;10.80;99.90;;;11.21;43.03;101205.69;5094963;28;20123;-58
2022/03/11 08:36:10;;;;;;;20.88;14.05;;;10.90;99.90;;;11.24;43.69;101207.47;5094745;28;20122;-56
2022/03/11 08:38:41;;;;;;;17.42;13.43;;;11.00;99.90;;;11.23;42.83;101206.56;5095208;28;20044;-55
2022/03/11 08:41:11;;;;;;;23.00;14.45;;;10.90;99.90;;;11.35;42.73;101213.59;5095160;28;20051;-55
2022/03/11 08:43:41;;;;;;;21.48;13.00;;;11.10;99.90;;;11.24;43.99;101147.44;5094919;28;20386;-55
2022/03/11 08:46:11;;;;;;;20.35;13.88;;;11.10;99.90;;;11.38;43.75;101195.94;5094851;28;20071;-55
2022/03/11 08:48:41;;;;;;;28.70;14.77;;;11.10;99.90;;;11.57;43.52;101187.09;5094488;28;20040;-55
2022/03/11 08:51:09;;;;;;;19.55;14.00;;;11.20;99.90;;;11.51;43.51;101196.81;5094552;28;20117;-54
2022/03/11 08:53:38;;;;;;;21.85;14.25;;;11.20;99.90;;;11.47;43.26;101185.34;5094502;28;20078;-56
2022/03/11 08:56:08;;;;;;;22.80;14.02;;;11.20;99.90;;;11.44;43.51;101171.22;5095277;28;20044;-55
2022/03/11 08:58:37;;;;;;;23.25;13.10;;;11.20;99.90;;;11.80;43.49;101197.63;5094574;28;20060;-55
2022/03/11 09:01:05;;;;;;;20.50;14.32;;;11.40;99.90;;;11.48;43.67;101167.66;5094247;28;20519;-55
2022/03/11 09:03:34;;;;;;;19.98;13.90;;;11.30;99.90;;;11.86;44.53;101159.59;5094367;28;20047;-55
2022/03/11 09:06:03;;;;;;;22.50;14.10;;;11.50;99.90;;;11.83;43.51;101162.28;5075402;28;20082;-55
2022/03/11 09:08:31;;;;;;;20.60;13.98;;;11.50;99.90;;;11.81;43.58;101151.66;5094221;28;20051;-57
2022/03/11 09:11:05;;;;;;;19.10;14.25;;;11.60;99.90;;;12.11;44.77;101161.22;5094241;28;20079;-55
2022/03/11 09:13:35;;;;;;;25.83;13.93;;;11.70;99.90;;;11.99;43.98;101169.25;5094444;28;20101;-55
2022/03/11 09:16:05;;;;;;;21.92;14.52;;;11.70;99.90;;;11.92;43.71;101149.84;5094111;28;20048;-54
2022/03/11 09:18:34;;;;;;;23.00;14.30;;;11.70;99.90;;;12.03;43.94;101155.06;5094214;28;20412;-55
2022/03/11 09:21:04;;;;;;;26.10;14.57;;;11.70;99.90;;;12.05;44.22;101163.91;5076003;28;20406;-55
2022/03/11 09:23:33;;;;;;;21.30;13.82;;;11.70;99.90;;;12.05;44.32;101145.34;5093715;28;20377;-56
2022/03/11 09:26:02;;;;;;;23.90;14.05;;;11.70;99.90;;;12.41;43.98;101161.00;5093797;28;20468;-55
2022/03/11 09:28:31;;;;;;;19.80;13.85;;;12.00;99.90;;;12.46;45.12;101153.91;5093752;28;20331;-55
2022/03/11 09:31:03;;;;;;;20.92;13.45;;;12.20;99.90;;;12.52;43.71;101172.44;5094269;28;20071;-55
2022/03/11 09:33:32;;;;;;;24.23;13.90;;;12.20;99.90;;;12.51;44.84;101163.59;5093987;28;20151;-55
2022/03/11 09:36:00;;;;;;;22.92;15.02;;;12.20;99.90;;;12.29;44.00;101129.28;5093739;28;20131;-55
2022/03/11 09:38:29;;;;;;;21.48;13.57;;;12.10;99.90;;;12.63;44.90;101150.25;5075581;28;20431;-55
2022/03/11 09:41:02;;;;;;;25.20;13.68;;;12.30;99.90;;;12.76;45.44;101152.75;5075551;28;20418;-55
2022/03/11 09:43:30;;;;;;;23.13;13.45;;;12.40;99.90;;;12.85;44.78;101150.94;5093385;28;20051;-55
2022/03/11 09:46:00;;;;;;;20.73;14.15;;;12.50;99.90;;;12.89;44.31;101159.75;5093375;28;20101;-55
2022/03/11 09:48:29;;;;;;;23.08;15.00;;;12.60;99.90;;;12.76;45.00;101164.25;5093605;28;20067;-56
2022/03/11 09:50:59;;;;;;;20.75;15.05;;;12.50;99.90;;;12.77;45.60;101147.47;5093168;28;20126;-55
2022/03/11 09:53:35;;;;;;;22.63;15.35;;;12.50;99.90;;;12.73;45.80;101144.84;5093278;28;20055;-55
2022/03/11 09:56:04;;;;;;;24.70;15.05;;;12.40;99.90;;;13.21;46.70;101139.09;5093327;28;20409;-56
2022/03/11 09:58:32;;;;;;;24.70;15.00;;;12.70;99.90;;;13.11;45.43;101135.66;5093202;28;20044;-55
2022/03/11 10:01:04;;;;;;;20.55;13.57;;;12.80;99.90;;;13.01;44.74;101125.09;5093399;28;20044;-56
2022/03/11 10:03:33;;;;;;;21.95;14.25;;;12.80;99.90;;;12.96;44.95;101114.53;5093430;28;20039;-55
2022/03/11 10:06:02;;;;;;;22.65;13.95;;;12.80;99.90;;;12.92;44.63;101104.84;5093020;28;20143;-55
2022/03/11 10:08:35;;;;;;;21.88;14.45;;;12.80;99.90;;;13.21;46.02;101107.22;5092970;28;20121;-55
2022/03/11 10:11:19;;;;;;;25.73;14.57;;;12.90;99.90;;;13.26;45.56;101151.41;5093186;28;20043;-55
2022/03/11 10:13:51;;;;;;;20.17;13.43;;;12.90;99.90;;;13.16;45.87;101117.88;5093155;28;20462;-55
2022/03/11 10:16:23;;;;;;;20.42;13.73;;;12.90;99.90;;;13.39;47.73;101121.16;5093286;28;20044;-55
2022/03/11 10:19:00;;;;;;;20.33;13.68;;;13.00;99.90;;;13.63;46.55;101125.28;5093009;28;20063;-55